createdAt,value
2022-12-19T00:01:36.278Z,3.98
2022-12-19T00:04:07.990Z,3.98
2022-12-19T00:06:36.369Z,3.94
2022-12-19T00:09:03.118Z,3.98
2022-12-19T00:11:29.928Z,4.04
2022-12-19T00:13:56.775Z,4.11
2022-12-19T00:16:29.218Z,4.10
2022-12-19T00:18:59.183Z,4.06
2022-12-19T00:21:28.820Z,4.10
2022-12-19T00:23:55.355Z,4.12
2022-12-19T00:26:27.698Z,4.07
2022-12-19T00:28:56.977Z,4.09
2022-12-19T00:31:24.911Z,4.09
2022-12-19T00:33:51.916Z,4.05
2022-12-19T00:36:22.893Z,4.05
2022-12-19T00:38:51.207Z,4.02
2022-12-19T00:41:23.694Z,4.05
2022-12-19T00:43:58.318Z,4.04
2022-12-19T00:46:25.648Z,4.10
2022-12-19T00:48:52.343Z,4.14
2022-12-19T00:51:30.494Z,4.15
2022-12-19T00:53:58.130Z,4.12
2022-12-19T00:56:37.298Z,4.14
2022-12-19T00:59:05.577Z,4.22
2022-12-19T01:01:34.778Z,4.27
2022-12-19T01:06:49.962Z,4.17
2022-12-19T01:09:17.343Z,4.11
2022-12-19T01:12:03.444Z,4.05
2022-12-19T01:14:29.844Z,4.01
2022-12-19T01:16:56.242Z,4.04
2022-12-19T01:19:22.643Z,4.15
2022-12-19T01:21:49.043Z,4.17
2022-12-19T01:24:18.913Z,4.23
2022-12-19T01:26:45.971Z,4.24
2022-12-19T01:29:12.367Z,4.27
2022-12-19T01:31:38.881Z,4.27
2022-12-19T01:34:05.336Z,4.28
2022-12-19T01:36:32.044Z,4.22
2022-12-19T01:38:58.540Z,4.20
2022-12-19T01:41:25.200Z,4.23
2022-12-19T01:43:54.628Z,4.19
2022-12-19T01:46:28.410Z,4.21
2022-12-19T01:48:56.641Z,4.17
2022-12-19T01:51:25.655Z,4.21
2022-12-19T01:54:01.509Z,4.21
2022-12-19T01:56:34.483Z,4.19
2022-12-19T01:59:07.004Z,4.19
2022-12-19T02:01:34.783Z,4.15
2022-12-19T02:04:02.769Z,4.14
2022-12-19T02:06:30.470Z,4.09
2022-12-19T02:08:57.326Z,4.04
2022-12-19T02:11:23.737Z,4.06
2022-12-19T02:13:50.197Z,4.10
2022-12-19T02:16:23.991Z,4.10
2022-12-19T02:19:23.605Z,4.09
2022-12-19T02:21:59.149Z,4.07
2022-12-19T02:24:41.628Z,4.10
2022-12-19T02:27:46.841Z,4.16
2022-12-19T02:30:18.028Z,4.12
2022-12-19T02:33:00.195Z,4.12
2022-12-19T02:35:33.423Z,4.14
2022-12-19T02:38:18.185Z,4.14
2022-12-19T02:41:05.214Z,4.19
2022-12-19T02:43:37.528Z,4.11
2022-12-19T02:46:06.394Z,4.10
2022-12-19T02:48:34.022Z,4.17
2022-12-19T02:51:00.455Z,4.17
2022-12-19T02:53:26.850Z,4.16
2022-12-19T02:56:10.529Z,4.17
2022-12-19T02:58:42.820Z,4.23
2022-12-19T03:01:42.280Z,4.21
2022-12-19T03:04:17.765Z,4.12
2022-12-19T03:06:54.015Z,4.05
2022-12-19T03:09:40.842Z,4.09
2022-12-19T03:12:17.332Z,4.11
2022-12-19T03:14:45.423Z,4.07
2022-12-19T03:17:11.874Z,4.03
2022-12-19T03:19:40.339Z,4.03
2022-12-19T03:22:07.456Z,4.14
2022-12-19T03:24:34.118Z,4.16
2022-12-19T03:27:11.228Z,4.17
2022-12-19T03:29:43.400Z,4.12
2022-12-19T03:32:13.811Z,4.19
2022-12-19T03:34:47.112Z,4.25
2022-12-19T03:37:17.767Z,4.27
2022-12-19T03:39:49.867Z,4.29
2022-12-19T03:42:37.308Z,4.29
2022-12-19T03:45:06.579Z,4.29
2022-12-19T03:47:44.359Z,4.34
2022-12-19T03:50:11.139Z,4.35
2022-12-19T03:52:43.652Z,4.35
2022-12-19T03:55:27.436Z,4.22
2022-12-19T03:57:59.177Z,4.19
2022-12-19T04:00:26.863Z,4.16
2022-12-19T04:02:57.364Z,4.19
2022-12-19T04:05:26.466Z,4.24
2022-12-19T04:07:56.319Z,4.21
2022-12-19T04:10:26.214Z,4.22
2022-12-19T04:13:02.735Z,4.28
2022-12-19T04:15:50.292Z,4.29
2022-12-19T04:18:18.396Z,4.30
2022-12-19T04:20:52.545Z,4.37
2022-12-19T04:23:26.973Z,4.40
2022-12-19T04:26:00.292Z,4.34
2022-12-19T04:28:34.802Z,4.28
2022-12-19T04:31:02.580Z,4.31
2022-12-19T04:33:29.097Z,4.35
2022-12-19T04:35:55.643Z,4.34
2022-12-19T04:38:22.279Z,4.31
2022-12-19T04:40:48.720Z,4.29
2022-12-19T04:43:15.150Z,4.32
2022-12-19T04:45:42.146Z,4.26
2022-12-19T04:48:09.259Z,4.26
2022-12-19T04:50:36.263Z,4.29
2022-12-19T04:53:02.789Z,4.26
2022-12-19T04:55:29.200Z,4.29
2022-12-19T04:57:55.652Z,4.37
2022-12-19T05:00:22.212Z,4.38
2022-12-19T05:02:48.770Z,4.37
2022-12-19T05:05:16.545Z,4.36
2022-12-19T05:07:43.054Z,4.24
2022-12-19T05:10:09.721Z,4.17
2022-12-19T05:12:36.307Z,4.23
2022-12-19T05:15:02.880Z,4.24
2022-12-19T05:17:29.296Z,4.32
2022-12-19T05:19:55.796Z,4.34
2022-12-19T05:22:22.184Z,4.36
2022-12-19T05:24:48.594Z,4.38
2022-12-19T05:27:15.073Z,4.38
2022-12-19T05:29:41.469Z,4.32
2022-12-19T05:32:08.025Z,4.35
2022-12-19T05:34:34.472Z,4.37
2022-12-19T05:37:03.032Z,4.40
2022-12-19T05:39:30.348Z,4.40
2022-12-19T05:41:56.777Z,4.43
2022-12-19T05:44:23.949Z,4.44
2022-12-19T05:46:50.967Z,4.40
2022-12-19T05:49:17.424Z,4.40
2022-12-19T05:51:43.885Z,4.39
2022-12-19T05:54:10.302Z,4.31
2022-12-19T05:56:36.687Z,4.33
2022-12-19T05:59:03.103Z,4.35
2022-12-19T06:01:30.264Z,4.35
2022-12-19T06:03:56.738Z,4.36
2022-12-19T06:06:26.062Z,4.30
2022-12-19T06:08:57.796Z,4.30
2022-12-19T06:11:25.104Z,4.32
2022-12-19T06:13:51.642Z,4.31
2022-12-19T06:16:19.802Z,4.30
2022-12-19T06:18:47.343Z,4.31
2022-12-19T06:21:19.414Z,4.36
2022-12-19T06:23:46.793Z,4.40
2022-12-19T06:26:19.517Z,4.40
2022-12-19T06:28:46.868Z,4.37
2022-12-19T06:31:13.888Z,4.34
2022-12-19T06:33:40.574Z,4.30
2022-12-19T06:36:11.960Z,4.29
2022-12-19T06:38:38.444Z,4.34
2022-12-19T06:41:23.465Z,4.38
2022-12-19T06:43:53.296Z,4.34
2022-12-19T06:46:20.522Z,4.33
2022-12-19T06:48:47.004Z,4.33
2022-12-19T06:51:13.449Z,4.35
2022-12-19T06:53:40.365Z,4.34
2022-12-19T06:56:07.378Z,4.34
2022-12-19T06:58:34.784Z,4.39
2022-12-19T07:01:01.626Z,4.40
2022-12-19T07:03:45.856Z,4.33
2022-12-19T07:06:15.905Z,4.34
2022-12-19T07:08:42.672Z,4.35
2022-12-19T07:11:09.145Z,4.33
2022-12-19T07:13:35.570Z,4.32
2022-12-19T07:16:04.122Z,4.33
2022-12-19T07:18:34.456Z,4.36
2022-12-19T07:21:01.765Z,4.42
2022-12-19T07:23:29.172Z,4.40
2022-12-19T07:25:55.701Z,4.42
2022-12-19T07:28:22.185Z,4.45
2022-12-19T07:30:48.639Z,4.45
2022-12-19T07:33:21.072Z,4.47
2022-12-19T07:35:48.200Z,4.45
2022-12-19T07:38:14.691Z,4.48
2022-12-19T07:40:41.185Z,4.45
2022-12-19T07:43:07.782Z,4.47
2022-12-19T07:45:37.588Z,4.49
2022-12-19T07:48:05.901Z,4.54
2022-12-19T07:50:33.527Z,4.55
2022-12-19T07:53:04.759Z,4.53
2022-12-19T07:55:31.186Z,4.49
2022-12-19T07:57:57.587Z,4.47
2022-12-19T08:00:24.242Z,4.44
2022-12-19T08:02:50.857Z,4.39
2022-12-19T08:05:17.807Z,4.44
2022-12-19T08:07:44.442Z,4.46
2022-12-19T08:10:15.038Z,4.48
2022-12-19T08:12:41.840Z,4.51
2022-12-19T08:15:08.681Z,4.57
2022-12-19T08:17:35.946Z,4.55
2022-12-19T08:20:02.476Z,4.52
2022-12-19T08:22:30.382Z,4.55
2022-12-19T08:24:57.625Z,4.52
2022-12-19T08:27:24.491Z,4.56
2022-12-19T08:29:51.006Z,4.58
2022-12-19T08:32:21.214Z,4.63
2022-12-19T08:34:48.366Z,4.71
2022-12-19T08:37:14.775Z,4.54
2022-12-19T08:39:41.253Z,4.55
2022-12-19T08:42:07.766Z,4.62
2022-12-19T08:44:34.181Z,4.65
2022-12-19T08:47:00.616Z,4.69
2022-12-19T08:49:29.312Z,4.65
2022-12-19T08:51:55.824Z,4.68
2022-12-19T08:54:22.226Z,4.70
2022-12-19T08:56:51.701Z,4.70
2022-12-19T08:59:19.091Z,4.73
2022-12-19T09:01:48.658Z,4.77
2022-12-19T09:05:58.508Z,4.71
2022-12-19T09:07:01.718Z,4.76
2022-12-19T09:09:28.425Z,4.74
2022-12-19T09:11:54.909Z,4.73
2022-12-19T09:14:21.778Z,4.74
2022-12-19T09:16:48.736Z,4.70
2022-12-19T09:19:16.762Z,4.70
2022-12-19T09:21:43.326Z,4.68
2022-12-19T09:24:10.189Z,4.67
2022-12-19T09:26:41.957Z,4.61
2022-12-19T09:29:20.759Z,4.61
2022-12-19T09:31:55.576Z,4.66
2022-12-19T09:34:37.668Z,4.66
2022-12-19T09:37:16.927Z,4.65
2022-12-19T09:39:47.829Z,4.55
2022-12-19T09:42:45.585Z,4.61
2022-12-19T09:45:49.031Z,4.74
2022-12-19T09:48:24.706Z,4.71
2022-12-19T09:51:10.160Z,4.71
2022-12-19T09:53:54.958Z,4.76
2022-12-19T09:56:23.634Z,4.77
2022-12-19T09:58:58.320Z,4.75
2022-12-19T10:01:32.834Z,4.68
2022-12-19T10:04:13.183Z,4.72
2022-12-19T10:07:11.922Z,4.75
2022-12-19T10:10:54.651Z,4.75
2022-12-19T10:12:45.781Z,4.79
2022-12-19T10:15:28.456Z,4.71
2022-12-19T10:18:13.855Z,4.74
2022-12-19T10:20:46.085Z,4.73
2022-12-19T10:23:21.126Z,4.73
2022-12-19T10:25:51.626Z,4.75
2022-12-19T10:28:52.169Z,4.74
2022-12-19T10:31:24.002Z,4.76
2022-12-19T10:34:02.865Z,4.81
2022-12-19T10:37:12.468Z,4.77
2022-12-19T10:39:29.592Z,4.77
2022-12-19T10:42:02.877Z,4.77
2022-12-19T10:44:32.239Z,4.79
2022-12-19T10:46:58.703Z,4.78
2022-12-19T10:49:26.668Z,4.75
2022-12-19T10:51:55.918Z,4.76
2022-12-19T10:54:38.531Z,4.79
2022-12-19T10:57:28.260Z,4.74
2022-12-19T11:00:03.856Z,4.72
2022-12-19T11:02:51.551Z,4.76
2022-12-19T11:05:41.310Z,4.75
2022-12-19T11:08:07.685Z,4.78
2022-12-19T11:11:15.496Z,4.80
2022-12-19T11:18:48.364Z,4.72
2022-12-19T11:22:10.425Z,4.77
2022-12-19T11:29:40.714Z,4.78
2022-12-19T11:29:41.548Z,4.79
2022-12-19T11:30:06.049Z,4.77
2022-12-19T11:30:38.165Z,4.77
2022-12-19T11:34:24.482Z,4.82
2022-12-19T11:37:11.887Z,4.87
2022-12-19T11:39:53.257Z,4.87
2022-12-19T11:42:36.964Z,4.86
2022-12-19T11:45:12.097Z,4.84
2022-12-19T11:47:47.800Z,4.86
2022-12-19T11:50:21.706Z,4.87
2022-12-19T11:53:07.709Z,4.91
2022-12-19T11:55:53.566Z,4.93
2022-12-19T11:58:22.495Z,4.99
2022-12-19T12:01:09.194Z,4.96
2022-12-19T12:04:03.588Z,4.96
2022-12-19T12:06:38.618Z,4.95
2022-12-19T12:13:04.138Z,4.96
2022-12-19T12:20:50.688Z,4.99
2022-12-19T12:31:02.828Z,5.00
2022-12-19T12:31:09.270Z,4.97
2022-12-19T12:31:23.833Z,4.96
2022-12-19T12:32:04.824Z,4.95
2022-12-19T12:32:04.978Z,5.08
2022-12-19T12:35:51.499Z,5.15
2022-12-19T12:41:03.431Z,5.16
2022-12-19T12:43:57.622Z,5.22
2022-12-19T12:46:27.558Z,5.26
2022-12-19T12:49:04.020Z,5.20
2022-12-19T12:51:33.475Z,5.21
2022-12-19T12:54:14.224Z,5.12
2022-12-19T12:56:42.145Z,5.15
2022-12-19T12:59:24.247Z,5.23
2022-12-19T13:01:56.928Z,5.16
2022-12-19T13:04:35.104Z,5.20
2022-12-19T13:07:13.691Z,5.26
2022-12-19T13:09:41.292Z,5.30
2022-12-19T13:12:45.796Z,5.21
2022-12-19T13:15:37.477Z,5.27
2022-12-19T13:18:14.390Z,5.29
2022-12-19T13:20:48.049Z,5.35
2022-12-19T13:23:33.679Z,5.37
2022-12-19T13:26:01.179Z,5.33
2022-12-19T13:28:27.523Z,5.31
2022-12-19T13:31:21.291Z,5.29
2022-12-19T13:33:56.082Z,5.35
2022-12-19T13:39:50.928Z,5.27
2022-12-19T13:40:02.475Z,5.27
2022-12-19T13:42:46.964Z,5.33
2022-12-19T13:45:15.459Z,5.31
2022-12-19T13:47:44.443Z,5.22
2022-12-19T13:50:38.528Z,5.21
2022-12-19T13:53:19.933Z,5.23
2022-12-19T13:55:46.534Z,5.22
2022-12-19T13:58:29.323Z,5.28
2022-12-19T14:01:01.172Z,5.16
2022-12-19T14:03:33.158Z,5.17
2022-12-19T14:06:24.122Z,5.21
2022-12-19T14:09:25.119Z,5.23
2022-12-19T14:12:17.562Z,5.33
2022-12-19T14:14:49.013Z,5.39
2022-12-19T14:17:33.228Z,5.32
2022-12-19T14:22:02.840Z,5.33
2022-12-19T14:22:59.276Z,5.31
2022-12-19T14:28:16.744Z,5.28
2022-12-19T14:28:31.027Z,5.32
2022-12-19T14:31:02.967Z,5.36
2022-12-19T14:33:46.161Z,5.36
2022-12-19T14:36:27.401Z,5.33
2022-12-19T14:39:22.153Z,5.36
2022-12-19T14:42:03.441Z,5.35
2022-12-19T14:52:51.479Z,5.32
2022-12-19T14:54:11.922Z,5.42
2022-12-19T14:54:37.407Z,5.43
2022-12-19T14:54:40.851Z,5.43
2022-12-19T14:59:01.616Z,5.39
2022-12-19T15:01:32.012Z,5.36
2022-12-19T15:04:53.435Z,5.37
2022-12-19T15:07:09.185Z,5.36
2022-12-19T15:11:08.672Z,5.35
2022-12-19T15:14:52.223Z,5.33
2022-12-19T15:16:06.054Z,5.29
2022-12-19T15:18:32.569Z,5.28
2022-12-19T15:21:05.020Z,5.28
2022-12-19T15:23:31.823Z,5.28
2022-12-19T15:26:05.681Z,5.25
2022-12-19T15:28:53.771Z,5.24
2022-12-19T15:31:39.935Z,5.23
2022-12-19T15:34:37.319Z,5.20
2022-12-19T15:37:11.102Z,5.17
2022-12-19T15:39:37.955Z,5.22
2022-12-19T15:42:05.432Z,5.27
2022-12-19T15:44:37.803Z,5.30
2022-12-19T15:47:07.617Z,5.28
2022-12-19T15:49:35.143Z,5.28
2022-12-19T15:52:02.691Z,5.17
2022-12-19T15:57:22.741Z,5.17
2022-12-19T15:59:49.792Z,5.20
2022-12-19T16:02:20.486Z,5.18
2022-12-19T16:04:50.068Z,5.16
2022-12-19T16:07:18.951Z,5.14
2022-12-19T16:09:45.592Z,5.17
2022-12-19T16:12:16.102Z,5.18
2022-12-19T16:14:43.209Z,5.14
2022-12-19T16:17:17.817Z,5.32
2022-12-19T16:19:44.458Z,5.41
2022-12-19T16:22:25.502Z,5.33
2022-12-19T16:24:53.438Z,5.32
2022-12-19T16:27:31.639Z,5.26
2022-12-19T16:30:18.634Z,5.20
2022-12-19T16:32:45.911Z,5.16
2022-12-19T16:35:17.483Z,5.16
2022-12-19T16:37:50.825Z,5.12
2022-12-19T16:40:26.593Z,5.12
2022-12-19T16:43:04.434Z,5.15
2022-12-19T16:45:33.430Z,5.12
2022-12-19T16:48:00.033Z,5.06
2022-12-19T16:50:29.702Z,5.11
2022-12-19T16:52:57.113Z,5.09
2022-12-19T16:55:25.572Z,5.08
2022-12-19T16:57:55.518Z,5.11
2022-12-19T17:00:23.422Z,5.13
2022-12-19T17:02:58.510Z,5.17
2022-12-19T17:05:30.207Z,5.23
2022-12-19T17:07:56.636Z,5.23
2022-12-19T17:10:30.029Z,5.21
2022-12-19T17:12:58.043Z,5.15
2022-12-19T17:15:29.019Z,5.12
2022-12-19T17:18:01.567Z,5.16
2022-12-19T17:20:35.401Z,5.16
2022-12-19T17:23:01.873Z,5.14
2022-12-19T17:25:28.404Z,5.15
2022-12-19T17:27:55.860Z,5.20
2022-12-19T17:30:22.622Z,5.16
2022-12-19T17:32:52.805Z,5.15
2022-12-19T17:35:27.551Z,5.14
2022-12-19T17:37:56.621Z,5.11
2022-12-19T17:40:26.305Z,5.06
2022-12-19T17:42:53.491Z,5.08
2022-12-19T17:45:21.582Z,5.12
2022-12-19T17:47:48.717Z,5.05
2022-12-19T17:50:26.680Z,5.05
2022-12-19T17:52:55.054Z,5.07
2022-12-19T17:55:22.805Z,5.12
2022-12-19T17:57:49.944Z,5.13
2022-12-19T18:00:18.821Z,5.15
2022-12-19T18:02:47.498Z,5.10
2022-12-19T18:05:24.837Z,5.12
2022-12-19T18:07:52.536Z,5.13
2022-12-19T18:10:22.219Z,5.17
2022-12-19T18:12:49.155Z,5.19
2022-12-19T18:15:16.563Z,5.19
2022-12-19T18:17:44.387Z,5.19
2022-12-19T18:20:31.265Z,5.15
2022-12-19T18:22:59.921Z,5.15
2022-12-19T18:25:29.621Z,5.06
2022-12-19T18:27:56.244Z,5.04
2022-12-19T18:30:23.860Z,5.10
2022-12-19T18:32:55.981Z,5.09
2022-12-19T18:35:37.321Z,5.11
2022-12-19T18:38:23.311Z,5.13
2022-12-19T18:40:51.953Z,5.11
2022-12-19T18:43:19.162Z,5.12
2022-12-19T18:45:48.932Z,5.13
2022-12-19T18:48:23.193Z,5.13
2022-12-19T18:50:49.664Z,5.12
2022-12-19T18:53:21.457Z,5.10
2022-12-19T18:55:48.243Z,5.09
2022-12-19T18:58:15.289Z,5.10
2022-12-19T19:00:42.351Z,5.14
2022-12-19T19:03:14.821Z,5.16
2022-12-19T19:05:41.562Z,5.14
2022-12-19T19:08:28.772Z,5.14
2022-12-19T19:10:56.322Z,5.13
2022-12-19T19:13:25.557Z,5.14
2022-12-19T19:15:56.825Z,5.13
2022-12-19T19:18:29.804Z,5.16
2022-12-19T19:21:01.026Z,5.07
2022-12-19T19:23:32.692Z,5.05
2022-12-19T19:25:59.247Z,5.10
2022-12-19T19:28:25.695Z,5.13
2022-12-19T19:30:52.471Z,5.11
2022-12-19T19:33:22.742Z,5.12
2022-12-19T19:35:53.305Z,5.09
2022-12-19T19:38:21.408Z,5.13
2022-12-19T19:40:47.856Z,5.10
2022-12-19T19:43:14.515Z,5.13
2022-12-19T19:45:43.493Z,5.12
2022-12-19T19:48:10.301Z,5.11
2022-12-19T19:50:36.745Z,5.12
2022-12-19T19:53:03.327Z,5.09
2022-12-19T19:55:29.787Z,5.11
2022-12-19T19:57:56.318Z,5.13
2022-12-19T20:00:22.855Z,5.16
2022-12-19T20:02:50.023Z,5.14
2022-12-19T20:05:17.303Z,5.11
2022-12-19T20:07:43.808Z,5.13
2022-12-19T20:10:10.839Z,5.12
2022-12-19T20:12:37.325Z,5.12
2022-12-19T20:15:05.154Z,5.10
2022-12-19T20:17:31.589Z,5.08
2022-12-19T20:19:58.058Z,5.05
2022-12-19T20:22:24.494Z,5.10
2022-12-19T20:24:50.952Z,5.05
2022-12-19T20:27:17.467Z,5.01
2022-12-19T20:29:43.886Z,5.02
2022-12-19T20:32:10.532Z,5.05
2022-12-19T20:34:37.311Z,5.05
2022-12-19T20:37:03.725Z,5.01
2022-12-19T20:39:30.380Z,5.06
2022-12-19T20:41:56.799Z,5.04
2022-12-19T20:44:24.630Z,5.07
2022-12-19T20:46:51.960Z,5.13
2022-12-19T20:49:18.730Z,5.10
2022-12-19T20:51:47.557Z,5.06
2022-12-19T20:54:14.886Z,5.05
2022-12-19T20:56:42.547Z,5.05
2022-12-19T20:59:09.815Z,5.06
2022-12-19T21:01:36.440Z,5.12
2022-12-19T21:04:03.505Z,5.14
2022-12-19T21:06:30.232Z,5.07
2022-12-19T21:08:57.602Z,5.06
2022-12-19T21:11:26.103Z,5.06
2022-12-19T21:13:52.784Z,5.05
2022-12-19T21:16:21.826Z,5.05
2022-12-19T21:18:49.397Z,5.04
2022-12-19T21:21:19.285Z,5.06
2022-12-19T21:23:46.655Z,5.05
2022-12-19T21:26:13.388Z,5.06
2022-12-19T21:28:40.231Z,5.05
2022-12-19T21:31:13.660Z,5.03
2022-12-19T21:33:40.249Z,5.01
2022-12-19T21:36:16.585Z,5.04
2022-12-19T21:38:43.123Z,5.05
2022-12-19T21:41:10.434Z,5.03
2022-12-19T21:43:36.961Z,5.01
2022-12-19T21:46:10.738Z,5.04
2022-12-19T21:48:39.212Z,5.04
2022-12-19T21:51:06.776Z,5.04
2022-12-19T21:53:34.251Z,5.05
2022-12-19T21:56:06.809Z,5.07
2022-12-19T21:58:33.515Z,5.08
2022-12-19T22:01:08.133Z,5.01
2022-12-19T22:03:35.529Z,5.02
2022-12-19T22:06:02.065Z,5.03
2022-12-19T22:08:28.632Z,5.03
2022-12-19T22:10:55.065Z,4.98
2022-12-19T22:13:21.540Z,5.00
2022-12-19T22:15:48.082Z,4.99
2022-12-19T22:18:14.554Z,4.97
2022-12-19T22:20:44.962Z,4.96
2022-12-19T22:23:13.556Z,5.01
2022-12-19T22:25:40.245Z,4.97
2022-12-19T22:28:07.314Z,4.98
2022-12-19T22:30:36.800Z,5.00
2022-12-19T22:33:04.108Z,4.98
2022-12-19T22:35:32.683Z,4.98
2022-12-19T22:37:59.214Z,5.02
2022-12-19T22:40:25.645Z,4.99
2022-12-19T22:42:52.223Z,5.00
2022-12-19T22:45:18.701Z,4.99
2022-12-19T22:47:45.205Z,5.00
2022-12-19T22:50:11.678Z,5.03
2022-12-19T22:52:39.110Z,5.01
2022-12-19T22:55:06.596Z,5.03
2022-12-19T22:57:33.411Z,5.01
2022-12-19T22:59:59.903Z,4.98
2022-12-19T23:02:26.562Z,5.00
2022-12-19T23:04:53.126Z,5.01
2022-12-19T23:07:20.858Z,5.07
2022-12-19T23:09:47.249Z,5.09
2022-12-19T23:12:13.735Z,5.10
2022-12-19T23:14:40.157Z,5.08
2022-12-19T23:17:06.698Z,5.04
2022-12-19T23:19:33.188Z,5.01
2022-12-19T23:22:00.306Z,5.03
2022-12-19T23:24:27.051Z,4.99
2022-12-19T23:26:53.482Z,4.94
2022-12-19T23:29:19.905Z,4.98
2022-12-19T23:31:47.252Z,5.02
2022-12-19T23:34:14.925Z,5.03
2022-12-19T23:39:27.786Z,4.95
2022-12-19T23:41:54.178Z,4.89
2022-12-19T23:44:20.741Z,4.88
2022-12-19T23:46:47.204Z,4.94
2022-12-19T23:49:13.659Z,4.92
2022-12-19T23:51:40.094Z,4.97
2022-12-19T23:54:06.645Z,4.96
2022-12-19T23:56:33.167Z,4.96
2022-12-19T23:59:00.716Z,4.98
